首页
METAR-TAF:

METAR-TAF

机场 :

William H. Morse State Airport

本宁顿, 佛蒙特州, 美国

纬度: 42-53-24N, 经度: 073-14-47W, 海拔: 252米

当前天气观测

该预报发布于55分钟前的17:54 UTC
风速7节,风向
温度 -10°C
湿度 48%
气压 1037 hPa
能見度: 16.1公里
天空无云

METAR: KDDH 171754Z AUTO 35007KT 10SM CLR M10/M19 A3061 RMK AO2 SLP380 60000 T11001194 11100 21139 58008

时间: 13:49 (18:49 UTC)


TAF: 丢失

超过4000个机场的气象观测和天气预报(METAR&TAF报告)。

可查询的气象台以黄色和红色小点在地图上表示。

将鼠标移到小点上方,可查看气象台名称。

然后点击查看天气观测和预报。

如需切换地图:点击带黑十字的绿色按钮放大地图;点击带横线的绿色按钮缩小地图;或者点击绿色箭头查看邻近地区的地图。


METAR-TAF: